Time;durP1;ratioP1;P1;durP2;ratioP2;P2;SDS_P1;SDS_P2;PMS_P1;PMS_P2;Temp;Humidity;BMP_temperature;BMP_pressure;BME280_temperature;BME280_humidity;BME280_pressure;Samples;Min_cycle;Max_cycle;Signal;HPM_P1;HPM_P2
2022/07/30 00:00:37;;;;;;;;;33.50;31.75;;;;;28.94;47.42;98992.88;5126930;27;8850;-76
2022/07/30 00:03:07;;;;;;;;;28.50;28.50;;;;;29.01;47.08;98995.91;5158325;27;8831;-77
2022/07/30 00:05:35;;;;;;;;;34.25;32.25;;;;;29.01;47.07;98983.31;5153484;27;8844;-78
2022/07/30 00:08:04;;;;;;;;;38.50;34.00;;;;;29.03;47.14;98986.72;5142241;27;8857;-77
2022/07/30 00:10:33;;;;;;;;;35.50;32.75;;;;;29.01;47.40;98983.31;5131687;27;8868;-76
2022/07/30 00:13:03;;;;;;;;;41.00;35.75;;;;;28.97;47.64;98977.34;5079537;27;8984;-76
2022/07/30 00:15:32;;;;;;;;;36.00;32.00;;;;;28.94;47.40;98984.81;5151643;27;8843;-76
2022/07/30 00:18:00;;;;;;;;;40.00;34.50;;;;;28.90;47.78;98981.56;5131064;27;8852;-76
2022/07/30 00:20:29;;;;;;;;;41.00;35.25;;;;;28.89;47.84;98982.53;5131715;27;8849;-78
2022/07/30 00:23:03;;;;;;;;;40.25;34.25;;;;;28.88;47.74;98990.72;5113854;27;8988;-77
2022/07/30 00:25:32;;;;;;;;;45.00;36.25;;;;;28.84;47.91;98990.13;5131741;27;8845;-76
2022/07/30 00:28:01;;;;;;;;;38.50;33.75;;;;;28.84;48.15;98989.28;5078872;27;8961;-80
2022/07/30 00:30:31;;;;;;;;;41.25;36.75;;;;;28.84;48.16;98984.75;5095487;27;8826;-77
2022/07/30 00:33:00;;;;;;;;;43.25;36.00;;;;;28.78;48.58;98988.81;5125361;27;8839;-78
2022/07/30 00:35:28;;;;;;;;;40.25;35.25;;;;;28.72;48.76;98983.13;5135473;27;8839;-78
2022/07/30 00:37:57;;;;;;;;;38.25;34.75;;;;;28.56;49.02;98981.75;5141100;27;8851;-76
2022/07/30 00:40:26;;;;;;;;;40.25;35.25;;;;;28.25;50.35;98977.22;5133967;27;8839;-79
2022/07/30 00:42:54;;;;;;;;;40.00;35.75;;;;;28.06;50.84;98973.38;5116345;27;8844;-79
2022/07/30 00:45:23;;;;;;;;;42.50;36.00;;;;;27.97;50.97;98972.28;5113502;27;8857;-77
2022/07/30 00:47:54;;;;;;;;;36.75;33.50;;;;;28.04;50.44;98964.59;5112508;27;8853;-78
2022/07/30 00:50:22;;;;;;;;;40.50;35.50;;;;;28.03;50.88;98973.63;5131498;27;9679;-78
2022/07/30 00:52:51;;;;;;;;;41.75;36.25;;;;;28.06;50.43;98962.66;5113264;27;8841;-76
2022/07/30 00:55:20;;;;;;;;;41.50;35.75;;;;;28.12;50.50;98970.19;5132036;27;8914;-81
2022/07/30 00:57:48;;;;;;;;;36.75;33.25;;;;;28.17;50.12;98962.63;5078513;27;8857;-77
2022/07/30 01:00:18;;;;;;;;;37.25;33.75;;;;;28.19;50.11;98957.97;5096300;27;8853;-78
2022/07/30 01:02:47;;;;;;;;;41.00;36.00;;;;;28.18;50.13;98955.41;5131431;27;8842;-77
2022/07/30 01:05:17;;;;;;;;;43.50;37.50;;;;;28.17;50.28;98959.94;5128042;27;9764;-79
2022/07/30 01:07:45;;;;;;;;;44.50;38.00;;;;;28.18;50.05;98947.38;5089865;28;8862;-80
2022/07/30 01:10:15;;;;;;;;;44.50;36.00;;;;;28.20;50.16;98956.13;5070230;28;8841;-80
2022/07/30 01:12:45;;;;;;;;;38.75;34.50;;;;;28.23;49.76;98945.16;5086945;28;8858;-78
2022/07/30 01:15:15;;;;;;;;;38.75;34.75;;;;;28.23;49.64;98952.38;5070010;28;8880;-77
2022/07/30 01:17:48;;;;;;;;;42.00;35.50;;;;;28.25;49.78;98945.88;5070047;28;8854;-78
2022/07/30 01:20:26;;;;;;;;;37.75;34.50;;;;;28.24;49.54;98938.81;5072567;28;8875;-78
2022/07/30 01:23:07;;;;;;;;;40.50;34.50;;;;;28.25;49.62;98945.03;5090603;28;8844;-76
2022/07/30 01:25:54;;;;;;;;;40.75;34.25;;;;;28.25;49.18;98935.16;5073554;28;8823;-77
2022/07/30 01:28:28;;;;;;;;;38.75;33.75;;;;;28.22;49.61;98932.72;5050761;28;8885;-78
2022/07/30 01:30:58;;;;;;;;;42.75;36.25;;;;;28.22;49.47;98934.56;4996620;28;8877;-78
2022/07/30 01:33:28;;;;;;;;;38.25;33.75;;;;;28.21;49.45;98936.41;4996833;28;8866;-77
2022/07/30 01:35:59;;;;;;;;;42.00;36.25;;;;;28.22;49.44;98939.94;5031426;28;8910;-77
2022/07/30 01:38:31;;;;;;;;;40.00;35.00;;;;;28.21;49.63;98935.56;5051185;28;9016;-79
2022/07/30 01:41:06;;;;;;;;;40.25;35.00;;;;;28.21;49.51;98930.19;5050890;28;8846;-77
2022/07/30 01:43:36;;;;;;;;;39.00;34.00;;;;;28.18;49.75;98931.28;5050939;28;9068;-76
2022/07/30 01:46:07;;;;;;;;;41.50;34.75;;;;;28.13;49.89;98934.38;5062999;28;8832;-78
2022/07/30 01:48:40;;;;;;;;;42.50;36.00;;;;;28.10;50.15;98928.41;5038185;28;8859;-77
2022/07/30 01:51:12;;;;;;;;;43.00;37.00;;;;;28.08;50.05;98930.34;5069989;28;8850;-78
2022/07/30 01:53:48;;;;;;;;;43.00;36.50;;;;;28.05;50.35;98920.72;5085714;28;8859;-76
2022/07/30 01:56:24;;;;;;;;;43.25;36.00;;;;;28.08;50.31;98927.69;5002736;28;8850;-78
2022/07/30 01:58:55;;;;;;;;;38.00;34.75;;;;;28.06;50.49;98932.31;5063469;27;9003;-76
2022/07/30 02:01:26;;;;;;;;;46.50;39.25;;;;;27.97;50.97;98924.03;5095159;27;8825;-77
2022/07/30 02:04:02;;;;;;;;;45.75;38.25;;;;;27.93;51.14;98930.63;5111962;27;8864;-78
2022/07/30 02:06:38;;;;;;;;;38.75;34.75;;;;;27.94;51.00;98934.16;5105401;27;8826;-78
2022/07/30 02:09:10;;;;;;;;;38.00;33.75;;;;;27.93;50.37;98927.97;5127365;27;8851;-75
2022/07/30 02:14:41;;;;;;;;;29.75;29.75;;;;;27.97;50.33;98925.88;5111374;27;8996;-77
2022/07/30 02:17:17;;;;;;;;;39.50;34.75;;;;;28.00;49.95;98918.44;5111737;27;8849;-77
2022/07/30 02:19:51;;;;;;;;;35.75;32.25;;;;;27.97;49.98;98918.69;5111162;27;8861;-78
2022/07/30 02:22:22;;;;;;;;;36.00;32.50;;;;;27.98;50.05;98925.75;5111109;27;8863;-78
2022/07/30 02:24:52;;;;;;;;;29.00;28.50;;;;;27.98;50.23;98911.50;5134553;27;8858;-76
2022/07/30 02:27:26;;;;;;;;;33.00;30.75;;;;;27.96;49.98;98908.97;5130505;27;8839;-77
2022/07/30 02:29:58;;;;;;;;;32.50;30.50;;;;;27.97;49.78;98904.44;5131790;27;8939;-78
2022/07/30 02:32:33;;;;;;;;;33.50;30.75;;;;;27.98;49.94;98906.16;5131325;27;8851;-79
2022/07/30 02:35:10;;;;;;;;;33.00;30.00;;;;;27.94;50.10;98900.19;5150022;27;8843;-78
2022/07/30 02:37:41;;;;;;;;;37.75;33.00;;;;;27.94;50.16;98905.56;5131666;27;9564;-81
2022/07/30 02:40:15;;;;;;;;;33.75;29.25;;;;;27.91;50.31;98891.56;5131337;27;9646;-78
2022/07/30 02:42:47;;;;;;;;;31.25;28.75;;;;;27.81;50.60;98892.28;5131508;27;8892;-78
2022/07/30 02:45:21;;;;;;;;;35.00;32.00;;;;;27.75;50.67;98889.25;5119103;27;8854;-77
2022/07/30 02:47:53;;;;;;;;;30.50;29.25;;;;;27.74;50.93;98900.94;5093234;27;8939;-78
2022/07/30 02:50:24;;;;;;;;;28.75;28.75;;;;;27.75;50.74;98905.31;5110691;27;8826;-78
2022/07/30 02:52:56;;;;;;;;;29.75;27.25;;;;;27.80;50.79;98893.25;5110365;27;8861;-77
2022/07/30 02:55:27;;;;;;;;;32.75;30.25;;;;;27.83;50.78;98897.53;5092212;27;8899;-77
2022/07/30 02:57:58;;;;;;;;;35.00;31.25;;;;;27.80;50.74;98903.97;5112946;27;8849;-78
2022/07/30 03:00:29;;;;;;;;;29.50;29.25;;;;;27.74;51.05;98890.25;5099588;27;8852;-78
2022/07/30 03:03:00;;;;;;;;;28.75;28.75;;;;;27.76;51.00;98899.84;5114521;27;8861;-77
2022/07/30 03:05:30;;;;;;;;;35.00;32.50;;;;;27.65;51.31;98891.81;5064222;27;8883;-78
2022/07/30 03:08:00;;;;;;;;;33.50;31.00;;;;;27.66;51.57;98888.19;5132737;27;9025;-78
2022/07/30 03:10:30;;;;;;;;;30.75;30.25;;;;;27.64;51.72;98889.28;5114457;27;8879;-78
2022/07/30 03:13:04;;;;;;;;;34.00;30.25;;;;;27.60;51.82;98894.06;5114658;27;8849;-77
2022/07/30 03:15:37;;;;;;;;;31.00;30.50;;;;;27.58;51.79;98888.81;5114568;27;8849;-77
2022/07/30 03:18:12;;;;;;;;;36.00;33.25;;;;;27.56;52.12;98895.25;5123954;27;8823;-78
2022/07/30 03:20:42;;;;;;;;;31.50;30.25;;;;;27.55;52.18;98885.53;5134947;27;8862;-78
2022/07/30 03:23:12;;;;;;;;;34.75;31.00;;;;;27.50;52.40;98885.88;5134972;27;8855;-78
2022/07/30 03:25:42;;;;;;;;;35.75;31.25;;;;;27.51;52.28;98884.94;5153350;27;8887;-76
2022/07/30 03:28:14;;;;;;;;;34.50;32.25;;;;;27.50;52.29;98893.09;5153443;27;9720;-76
2022/07/30 03:30:43;;;;;;;;;36.25;32.00;;;;;27.38;52.69;98886.91;5100924;27;8863;-77
2022/07/30 03:33:14;;;;;;;;;35.75;32.50;;;;;27.39;52.64;98889.47;5144733;27;8814;-78
2022/07/30 03:35:44;;;;;;;;;33.25;32.00;;;;;27.34;52.89;98883.63;5114270;27;8845;-77
2022/07/30 03:38:15;;;;;;;;;33.50;31.50;;;;;27.30;53.15;98887.53;5114700;27;8918;-76
2022/07/30 03:40:45;;;;;;;;;34.25;30.50;;;;;27.29;53.02;98887.63;5114295;27;9012;-76
2022/07/30 03:43:16;;;;;;;;;28.25;28.25;;;;;27.27;53.21;98890.44;5114675;27;8867;-77
2022/07/30 03:46:02;;;;;;;;;36.00;30.50;;;;;27.24;53.27;98893.34;5113971;27;8857;-77
2022/07/30 03:48:35;;;;;;;;;29.75;29.50;;;;;27.28;52.99;98899.31;5105534;27;8906;-77
2022/07/30 03:51:08;;;;;;;;;31.75;30.25;;;;;27.30;53.12;98892.03;5134987;27;8855;-78
2022/07/30 03:53:41;;;;;;;;;31.75;30.25;;;;;27.34;53.15;98890.81;5085114;27;9642;-79
2022/07/30 03:56:34;;;;;;;;;47.75;40.75;;;;;27.38;52.96;98885.06;5068980;28;8940;-77
2022/07/30 03:59:10;;;;;;;;;33.25;31.75;;;;;27.44;52.70;98894.44;5041700;28;8934;-77
2022/07/30 04:01:40;;;;;;;;;34.75;31.75;;;;;27.49;52.59;98894.91;5032169;28;8874;-76
2022/07/30 04:04:19;;;;;;;;;33.50;31.50;;;;;27.55;52.49;98897.09;5039635;28;8831;-76
2022/07/30 04:06:49;;;;;;;;;33.75;30.25;;;;;27.62;52.18;98892.09;5051054;28;8870;-78
2022/07/30 04:09:19;;;;;;;;;53.00;42.25;;;;;27.63;52.08;98884.91;5050809;28;8839;-79
2022/07/30 04:11:49;;;;;;;;;30.75;29.25;;;;;27.69;51.86;98893.28;5018785;28;8851;-78
2022/07/30 04:14:24;;;;;;;;;34.50;31.00;;;;;27.73;51.84;98889.41;5067657;28;8852;-78
2022/07/30 04:16:59;;;;;;;;;42.00;36.00;;;;;27.74;52.00;98882.19;5067685;28;8994;-75
2022/07/30 04:19:34;;;;;;;;;33.50;32.00;;;;;27.76;51.70;98883.75;5066618;28;8870;-77
2022/07/30 04:22:05;;;;;;;;;40.00;35.25;;;;;27.75;51.90;98881.19;5067448;28;8998;-76
2022/07/30 04:24:37;;;;;;;;;32.00;28.75;;;;;27.75;51.89;98879.41;5067413;28;8858;-77
2022/07/30 04:27:06;;;;;;;;;29.50;29.00;;;;;27.80;51.71;98881.69;5030884;28;8884;-76
2022/07/30 04:29:36;;;;;;;;;30.75;30.50;;;;;27.81;51.90;98884.25;5047442;28;8862;-77
2022/07/30 04:32:08;;;;;;;;;31.50;29.25;;;;;27.87;51.40;98880.19;5047264;28;8842;-77
2022/07/30 04:35:03;;;;;;;;;31.00;30.50;;;;;27.95;51.19;98883.13;5090781;28;8874;-79
2022/07/30 04:38:02;;;;;;;;;28.50;28.50;;;;;27.90;51.28;98868.41;5082863;28;8839;-77
2022/07/30 04:40:32;;;;;;;;;28.50;28.50;;;;;27.87;51.43;98868.63;5070495;28;8863;-77
2022/07/30 04:43:01;;;;;;;;;27.75;26.25;;;;;27.89;51.33;98872.06;5087470;28;8981;-77
2022/07/30 04:45:31;;;;;;;;;28.50;27.50;;;;;27.87;51.29;98864.13;5079912;28;8965;-78
2022/07/30 04:48:02;;;;;;;;;29.00;29.00;;;;;27.78;51.58;98856.84;5072785;28;8843;-77
2022/07/30 04:50:46;;;;;;;;;27.25;26.75;;;;;27.72;51.68;98868.91;5042819;28;8843;-77
2022/07/30 04:53:19;;;;;;;;;32.00;30.00;;;;;27.74;51.54;98869.66;5047312;28;8878;-77
2022/07/30 04:55:57;;;;;;;;;31.00;29.00;;;;;27.77;51.57;98863.19;5031244;28;8971;-76
2022/07/30 04:58:31;;;;;;;;;29.00;27.50;;;;;27.76;51.69;98870.38;5030760;28;8836;-76
2022/07/30 05:01:02;;;;;;;;;30.25;29.00;;;;;27.84;51.43;98859.00;5043148;28;8879;-76
2022/07/30 05:03:34;;;;;;;;;31.00;29.25;;;;;27.86;51.56;98862.41;5050208;28;8866;-76
2022/07/30 05:06:05;;;;;;;;;29.00;28.00;;;;;27.78;51.61;98852.31;5033720;28;8854;-76
2022/07/30 05:08:38;;;;;;;;;34.50;32.00;;;;;27.75;51.79;98863.31;5051136;28;8829;-82
2022/07/30 05:11:12;;;;;;;;;24.50;24.50;;;;;27.72;51.87;98860.03;5040614;28;9626;-86
2022/07/30 05:13:42;;;;;;;;;31.50;30.75;;;;;27.70;51.89;98856.63;5017916;28;9026;-83
2022/07/30 05:16:17;;;;;;;;;27.25;27.00;;;;;27.70;52.31;98862.00;5049773;28;8890;-71
2022/07/30 05:18:47;;;;;;;;;29.50;27.00;;;;;27.69;51.79;98863.81;5059347;28;9603;-73
2022/07/30 05:21:15;;;;;;;;;29.25;28.75;;;;;27.72;51.90;98865.41;5072218;28;9725;-82
2022/07/30 05:23:47;;;;;;;;;30.50;27.50;;;;;27.79;51.84;98864.75;5060251;28;8846;-83
2022/07/30 05:26:33;;;;;;;;;33.00;30.50;;;;;27.83;51.85;98862.69;5037383;28;8822;-85
2022/07/30 05:29:03;;;;;;;;;35.50;31.75;;;;;27.90;51.67;98863.03;5057233;28;8826;-70
2022/07/30 05:31:49;;;;;;;;;31.75;30.00;;;;;27.97;51.42;98859.72;5082925;28;8959;-71
2022/07/30 05:34:19;;;;;;;;;31.25;29.25;;;;;28.12;51.27;98872.81;5089037;28;8931;-71
2022/07/30 05:36:47;;;;;;;;;32.75;31.25;;;;;28.24;50.91;98882.50;5088327;28;8942;-71
2022/07/30 05:39:18;;;;;;;;;22.75;21.25;;;;;28.36;50.64;98883.31;5105405;28;8917;-84
2022/07/30 05:41:52;;;;;;;;;31.75;31.00;;;;;28.48;50.58;98881.41;5103873;28;8907;-86
2022/07/30 05:44:39;;;;;;;;;29.25;28.00;;;;;28.57;50.48;98877.97;5107904;28;8865;-81
2022/07/30 05:47:10;;;;;;;;;27.50;26.75;;;;;28.67;49.98;98876.19;5091383;28;8813;-85
2022/07/30 05:49:39;;;;;;;;;26.25;25.25;;;;;28.67;50.08;98881.53;5058566;28;8940;-81
2022/07/30 05:52:13;;;;;;;;;27.75;27.50;;;;;28.82;49.67;98873.16;5091588;28;8859;-83
2022/07/30 05:54:43;;;;;;;;;29.50;29.00;;;;;28.90;49.52;98886.75;5087641;27;8839;-84
2022/07/30 05:57:50;;;;;;;;;26.00;26.00;;;;;28.89;49.48;98877.00;5118048;27;8913;-80
2022/07/30 06:00:19;;;;;;;;;25.25;25.00;;;;;28.96;49.26;98892.44;5131263;27;9656;-82
2022/07/30 06:02:56;;;;;;;;;32.00;30.25;;;;;29.07;49.07;98896.84;5131971;27;8839;-79
2022/07/30 06:05:27;;;;;;;;;30.50;29.75;;;;;29.15;48.78;98902.44;5117306;27;8876;-75
2022/07/30 06:07:59;;;;;;;;;29.75;28.50;;;;;29.25;48.91;98904.34;5111030;27;8837;-73
2022/07/30 06:10:31;;;;;;;;;28.50;27.50;;;;;29.37;48.66;98897.84;5129526;27;8843;-71
2022/07/30 06:12:59;;;;;;;;;28.75;28.25;;;;;29.44;47.95;98898.16;5080607;27;8839;-79
2022/07/30 06:15:29;;;;;;;;;33.50;29.75;;;;;29.59;48.13;98893.25;5132418;27;8908;-87
2022/07/30 06:17:59;;;;;;;;;29.50;28.50;;;;;29.65;47.62;98888.16;5112875;27;8939;-85
2022/07/30 06:21:00;;;;;;;;;31.50;29.50;;;;;29.81;47.60;98898.44;5098353;27;8861;-83
2022/07/30 06:23:44;;;;;;;;;30.50;28.50;;;;;29.91;46.87;98891.19;5114234;27;9004;-71
2022/07/30 06:26:21;;;;;;;;;26.75;26.25;;;;;30.02;46.86;98886.66;5126484;27;8837;-72
2022/07/30 06:28:50;;;;;;;;;29.50;29.25;;;;;30.03;46.55;98883.00;5109087;27;8898;-69
2022/07/30 06:31:30;;;;;;;;;29.75;28.75;;;;;30.15;46.94;98886.38;5114568;27;8853;-71
2022/07/30 06:34:00;;;;;;;;;25.75;25.75;;;;;30.17;46.63;98887.09;5105982;27;8956;-68
2022/07/30 06:36:35;;;;;;;;;31.50;30.25;;;;;30.28;46.03;98890.50;5128586;27;8981;-70
2022/07/30 06:39:08;;;;;;;;;26.25;26.00;;;;;30.40;45.73;98896.59;5129185;27;9030;-69
2022/07/30 06:41:55;;;;;;;;;28.25;27.25;;;;;30.52;45.66;98898.13;5137467;27;8833;-70
2022/07/30 06:44:28;;;;;;;;;30.25;29.25;;;;;30.51;45.68;98891.06;5127542;27;8950;-70
2022/07/30 06:47:24;;;;;;;;;34.00;31.50;;;;;30.63;45.91;98890.91;5131172;27;8868;-70
2022/07/30 06:49:54;;;;;;;;;27.25;27.25;;;;;30.76;45.24;98894.13;5071001;27;8889;-70
2022/07/30 06:52:25;;;;;;;;;28.00;28.00;;;;;30.88;45.08;98892.09;5109360;27;8996;-70
2022/07/30 06:54:55;;;;;;;;;25.00;24.00;;;;;31.04;44.49;98886.97;5104974;27;8841;-71
2022/07/30 06:57:34;;;;;;;;;29.25;29.00;;;;;31.19;44.51;98898.13;5129710;27;8866;-70
2022/07/30 07:00:30;;;;;;;;;33.25;30.25;;;;;31.27;43.84;98892.00;5107126;27;8879;-69
2022/07/30 07:03:03;;;;;;;;;28.75;26.75;;;;;31.45;43.60;98892.88;5119912;27;8900;-69
2022/07/30 07:05:40;;;;;;;;;31.50;29.50;;;;;31.68;43.10;98892.47;5126279;27;8887;-70
2022/07/30 07:08:08;;;;;;;;;27.50;27.50;;;;;31.86;42.89;98890.66;5109552;27;8871;-70
2022/07/30 07:10:43;;;;;;;;;27.50;27.50;;;;;32.10;42.20;98891.06;5109845;27;8819;-71
2022/07/30 07:13:22;;;;;;;;;31.75;30.00;;;;;32.19;42.17;98893.69;5120543;27;8851;-69
2022/07/30 07:15:50;;;;;;;;;32.25;29.25;;;;;32.28;41.84;98889.19;5126760;27;8940;-70
2022/07/30 07:18:21;;;;;;;;;27.25;26.25;;;;;32.38;41.49;98889.97;5109039;27;8865;-70
2022/07/30 07:20:56;;;;;;;;;25.25;25.25;;;;;32.52;40.71;98893.13;5123681;27;8855;-70
2022/07/30 07:23:25;;;;;;;;;27.75;27.75;;;;;32.57;40.51;98877.31;5118307;27;8867;-70
2022/07/30 07:26:15;;;;;;;;;29.00;28.75;;;;;32.40;40.51;98885.25;5126179;27;8882;-75
2022/07/30 07:28:44;;;;;;;;;27.50;27.50;;;;;32.42;40.38;98877.84;5119617;27;8892;-76
2022/07/30 07:31:13;;;;;;;;;28.50;27.75;;;;;32.49;40.28;98888.84;5109469;27;8869;-75
2022/07/30 07:34:01;;;;;;;;;28.75;26.00;;;;;32.53;39.82;98887.53;5116509;27;8864;-73
2022/07/30 07:36:33;;;;;;;;;28.25;27.50;;;;;32.48;39.79;98889.88;5108849;27;8860;-77
2022/07/30 07:39:08;;;;;;;;;18.25;17.25;;;;;32.48;40.02;98889.88;5109325;27;8850;-77
2022/07/30 07:41:42;;;;;;;;;28.25;27.75;;;;;32.45;39.89;98884.78;5108148;27;8937;-77
2022/07/30 07:44:17;;;;;;;;;25.00;24.50;;;;;32.38;40.07;98878.31;5126072;27;8937;-75
2022/07/30 07:46:47;;;;;;;;;27.25;27.25;;;;;32.36;40.44;98881.16;5126722;27;8830;-73
2022/07/30 07:49:15;;;;;;;;;29.50;28.75;;;;;32.34;40.35;98877.78;5116273;27;8853;-72
2022/07/30 07:51:49;;;;;;;;;27.50;26.25;;;;;32.31;40.63;98877.25;5113257;27;8846;-73
2022/07/30 07:54:20;;;;;;;;;24.50;24.50;;;;;32.36;40.34;98872.22;5133393;27;8828;-73
2022/07/30 07:56:54;;;;;;;;;27.25;26.75;;;;;32.33;40.16;98875.25;5070459;28;8853;-71
2022/07/30 07:59:35;;;;;;;;;32.75;31.50;;;;;32.38;39.89;98873.78;5070027;28;8833;-72
2022/07/30 08:02:28;;;;;;;;;29.50;27.75;;;;;32.43;39.73;98881.41;5069348;28;8980;-73
2022/07/30 08:05:06;;;;;;;;;19.75;17.25;;;;;32.47;39.69;98876.53;5050897;28;8843;-74
2022/07/30 08:08:01;;;;;;;;;29.25;29.00;;;;;32.55;39.33;98874.75;5024455;28;8910;-74
2022/07/30 08:10:48;;;;;;;;;26.25;25.75;;;;;32.60;39.17;98871.59;5067465;28;8874;-71
2022/07/30 08:13:40;;;;;;;;;29.50;27.50;;;;;32.57;39.14;98875.47;5067355;28;8863;-71
2022/07/30 08:16:38;;;;;;;;;23.50;23.00;;;;;32.61;38.75;98876.00;5066736;28;8984;-73
2022/07/30 08:19:46;;;;;;;;;26.75;24.50;;;;;32.64;38.42;98872.97;5007732;28;8865;-72
2022/07/30 08:22:21;;;;;;;;;24.50;23.75;;;;;32.63;38.66;98865.88;5011830;28;8856;-71
2022/07/30 08:24:51;;;;;;;;;26.50;26.25;;;;;32.61;38.52;98871.44;5010704;28;8860;-72
2022/07/30 08:27:20;;;;;;;;;22.25;21.75;;;;;32.67;38.31;98863.69;5010813;28;8860;-72
2022/07/30 08:29:48;;;;;;;;;24.25;23.50;;;;;32.68;38.29;98860.84;5010870;28;9578;-73
2022/07/30 08:32:17;;;;;;;;;22.50;21.75;;;;;32.78;38.25;98861.59;5021712;28;8861;-73
2022/07/30 08:34:46;;;;;;;;;25.00;23.67;;;;;32.78;38.18;98866.13;5008060;28;8862;-72
2022/07/30 08:37:15;;;;;;;;;27.50;27.00;;;;;32.83;37.74;98859.22;5007280;28;8866;-73
2022/07/30 08:39:44;;;;;;;;;23.50;23.50;;;;;32.94;37.58;98852.72;5007443;28;8861;-72
2022/07/30 08:42:15;;;;;;;;;22.00;20.25;;;;;33.03;37.48;98857.16;5008490;28;8890;-72
2022/07/30 08:44:45;;;;;;;;;25.00;24.50;;;;;33.12;36.90;98847.28;4990624;28;8847;-73
2022/07/30 08:47:19;;;;;;;;;29.25;29.00;;;;;33.22;36.45;98847.97;5006999;28;8869;-72
2022/07/30 08:50:16;;;;;;;;;24.25;24.00;;;;;33.27;35.88;98852.91;5045740;27;8900;-74
2022/07/30 08:53:09;;;;;;;;;24.75;24.75;;;;;33.43;35.70;98852.09;5068620;28;8902;-82
2022/07/30 08:55:39;;;;;;;;;39.50;34.75;;;;;33.73;35.94;98852.53;5077464;28;8873;-83
2022/07/30 08:58:28;;;;;;;;;25.25;25.00;;;;;33.88;35.88;98855.44;5082309;28;8888;-82
2022/07/30 09:00:57;;;;;;;;;25.25;24.75;;;;;34.04;35.42;98849.19;5080786;28;8854;-81
2022/07/30 09:03:29;;;;;;;;;24.25;20.75;;;;;34.30;34.79;98849.88;5071926;28;8916;-87
2022/07/30 09:06:03;;;;;;;;;22.75;22.25;;;;;34.51;34.23;98851.22;5082911;28;8982;-84
2022/07/30 09:08:32;;;;;;;;;21.00;19.50;;;;;34.77;33.75;98861.03;5055732;28;8881;-85
2022/07/30 09:11:01;;;;;;;;;23.00;21.50;;;;;35.02;33.50;98856.34;5072019;28;8896;-85
2022/07/30 09:13:35;;;;;;;;;23.00;23.00;;;;;35.24;33.33;98852.06;5071549;28;8858;-87
2022/07/30 09:16:06;;;;;;;;;24.00;22.25;;;;;35.44;32.64;98858.72;5072578;28;9047;-85
2022/07/30 09:18:43;;;;;;;;;24.00;23.75;;;;;35.58;32.11;98862.56;5074314;28;8881;-85
2022/07/30 09:21:18;;;;;;;;;24.75;24.75;;;;;35.25;32.69;98849.16;5090461;28;8924;-83
2022/07/30 09:23:59;;;;;;;;;32.25;30.75;;;;;35.23;32.46;98850.38;5070972;28;8850;-84
2022/07/30 09:26:55;;;;;;;;;29.50;26.75;;;;;35.17;31.88;98846.47;5087565;28;8858;-82
2022/07/30 09:29:58;;;;;;;;;25.25;25.25;;;;;34.38;33.74;98852.56;5069176;28;8840;-83
2022/07/30 09:32:50;;;;;;;;;25.25;25.25;;;;;34.79;33.86;98851.69;5062140;28;8843;-85
2022/07/30 09:35:31;;;;;;;;;25.25;25.00;;;;;35.06;33.11;98855.81;5084473;28;8855;-83
2022/07/30 09:38:27;;;;;;;;;25.25;25.00;;;;;35.28;32.42;98856.94;5016822;28;8868;-86
2022/07/30 09:41:17;;;;;;;;;26.25;26.25;;;;;35.27;32.13;98854.41;5026711;28;8864;-82
2022/07/30 09:44:22;;;;;;;;;27.50;26.25;;;;;35.58;32.04;98849.00;4977404;28;8910;-82
2022/07/30 09:46:53;;;;;;;;;24.25;23.25;;;;;35.58;32.06;98854.44;4987042;28;8946;-84
2022/07/30 09:50:02;;;;;;;;;26.00;23.75;;;;;35.76;31.78;98846.03;4974152;28;8857;-82
2022/07/30 09:52:53;;;;;;;;;27.25;26.75;;;;;35.08;33.77;98837.50;4973995;28;8862;-86
2022/07/30 09:55:32;;;;;;;;;26.75;24.75;;;;;33.29;38.02;98850.00;4989138;28;8861;-88
2022/07/30 09:58:06;;;;;;;;;25.25;25.25;;;;;32.85;39.62;98847.44;4936035;28;8880;-84
2022/07/30 10:00:40;;;;;;;;;26.00;24.25;;;;;32.30;40.64;98832.38;4955884;28;8868;-89
2022/07/30 10:03:31;;;;;;;;;31.50;30.50;;;;;32.33;40.97;98826.69;4972158;28;8880;-87
2022/07/30 10:06:32;;;;;;;;;34.00;32.50;;;;;31.69;43.05;98829.47;4987431;28;9740;-84
2022/07/30 10:09:05;;;;;;;;;36.00;32.75;;;;;31.74;43.23;98832.56;5000544;28;8924;-82
2022/07/30 10:11:46;;;;;;;;;33.75;32.00;;;;;31.38;45.08;98840.59;5037392;28;8870;-79
2022/07/30 10:14:15;;;;;;;;;30.50;29.00;;;;;31.32;45.91;98849.25;5042639;28;8868;-86
2022/07/30 10:16:59;;;;;;;;;31.00;29.75;;;;;30.96;46.63;98851.00;5105938;27;8869;-81
2022/07/30 10:19:35;;;;;;;;;38.25;33.25;;;;;31.21;45.21;98857.53;5136674;27;8835;-87
2022/07/30 10:22:28;;;;;;;;;34.25;31.00;;;;;31.52;44.39;98859.97;5157832;27;8863;-89
2022/07/30 10:25:27;;;;;;;;;34.00;31.50;;;;;31.69;43.86;98850.22;5138386;27;9026;-83
2022/07/30 10:28:16;;;;;;;;;32.25;30.75;;;;;31.86;42.93;98850.19;5138432;27;8860;-80
2022/07/30 10:30:49;;;;;;;;;31.50;30.00;;;;;32.12;42.33;98862.94;5124946;27;8857;-82
2022/07/30 10:33:21;;;;;;;;;31.75;30.50;;;;;32.40;41.73;98869.06;5115108;27;8835;-85
2022/07/30 10:36:07;;;;;;;;;29.50;27.75;;;;;32.68;41.10;98857.28;5122267;27;8942;-86
2022/07/30 10:38:41;;;;;;;;;31.25;30.25;;;;;32.83;39.63;98853.81;5079356;27;8972;-84
2022/07/30 10:41:25;;;;;;;;;32.00;29.50;;;;;33.00;39.44;98857.47;5127875;27;8835;-81
2022/07/30 10:44:34;;;;;;;;;32.25;30.75;;;;;33.22;38.70;98861.47;5118880;27;8836;-83
2022/07/30 10:47:07;;;;;;;;;28.00;28.00;;;;;33.51;38.60;98859.38;5113850;27;8834;-85
2022/07/30 10:49:38;;;;;;;;;28.25;28.25;;;;;33.69;38.20;98862.84;5107802;27;8862;-82
2022/07/30 10:52:11;;;;;;;;;33.25;30.25;;;;;33.96;37.00;98850.84;5130035;27;8847;-82
2022/07/30 10:54:43;;;;;;;;;33.25;30.25;;;;;34.04;37.55;98858.13;5133340;27;8866;-82
2022/07/30 10:57:15;;;;;;;;;32.75;31.25;;;;;34.07;37.68;98846.16;5110222;27;8849;-85
2022/07/30 11:00:11;;;;;;;;;32.50;30.75;;;;;34.35;37.37;98836.69;5098459;27;8972;-84
2022/07/30 11:03:17;;;;;;;;;28.75;28.75;;;;;34.71;36.94;98832.75;5119069;27;8843;-84
2022/07/30 11:05:48;;;;;;;;;31.25;29.50;;;;;34.61;36.67;98818.53;5068098;27;8867;-82
2022/07/30 11:08:38;;;;;;;;;32.50;29.75;;;;;34.73;36.15;98826.13;5126358;27;8941;-82
2022/07/30 11:11:53;;;;;;;;;29.50;29.00;;;;;34.73;36.62;98831.56;5109311;27;8869;-82
2022/07/30 11:14:59;;;;;;;;;37.50;31.25;;;;;34.98;36.04;98830.63;5054678;28;8896;-86
2022/07/30 11:18:07;;;;;;;;;34.25;31.00;;;;;33.86;38.62;98847.47;5046294;28;8859;-82
2022/07/30 11:20:41;;;;;;;;;35.50;32.00;;;;;33.10;40.92;98849.25;5057428;28;8874;-84
2022/07/30 11:23:38;;;;;;;;;37.75;34.25;;;;;32.55;41.79;98852.28;5013616;28;8970;-78
2022/07/30 11:26:07;;;;;;;;;38.00;33.25;;;;;32.51;42.11;98853.59;4994381;28;9593;-81
2022/07/30 11:28:45;;;;;;;;;38.00;33.25;;;;;32.47;42.05;98847.69;4998257;28;8842;-85
2022/07/30 11:31:32;;;;;;;;;35.25;33.00;;;;;32.20;43.00;98844.13;5001996;28;9625;-85
2022/07/30 11:34:29;;;;;;;;;34.00;32.25;;;;;32.63;42.47;98849.69;5016503;28;9619;-84
2022/07/30 11:37:14;;;;;;;;;42.00;36.50;;;;;32.89;41.90;98843.41;4996805;28;8891;-88
2022/07/30 11:40:13;;;;;;;;;43.00;35.50;;;;;32.91;41.34;98839.53;4976465;28;8929;-81
2022/07/30 11:42:43;;;;;;;;;43.00;36.25;;;;;33.42;40.42;98844.97;4892932;29;9647;-78
2022/07/30 11:45:40;;;;;;;;;46.67;40.33;;;;;33.37;40.14;98845.50;4904208;29;8890;-86
2022/07/30 11:48:12;;;;;;;;;49.00;41.00;;;;;33.35;40.19;98850.22;4889281;29;9068;-85
2022/07/30 11:50:42;;;;;;;;;48.33;40.00;;;;;33.21;40.14;98843.59;4910990;28;9821;-82
2022/07/30 11:53:20;;;;;;;;;50.00;42.33;;;;;33.46;39.60;98823.88;4990092;28;9023;-87
2022/07/30 11:55:55;;;;;;;;;48.00;40.67;;;;;33.53;39.91;98833.84;4978652;28;9274;-83
2022/07/30 11:58:26;;;;;;;;;48.00;40.00;;;;;33.59;39.58;98833.22;4961086;28;9089;-83
2022/07/30 12:00:57;;;;;;;;;47.25;40.50;;;;;32.99;41.26;98826.06;4995416;28;9000;-88
2022/07/30 12:03:27;;;;;;;;;47.00;39.25;;;;;32.95;40.99;98816.59;5010030;28;8878;-82
2022/07/30 12:06:18;;;;;;;;;49.00;40.67;;;;;32.54;41.76;98826.31;4978594;28;8968;-84
2022/07/30 12:08:48;;;;;;;;;48.25;40.50;;;;;32.28;42.36;98831.69;4952524;28;9046;-80